Startpagina
METAR-TAF:

METAR-TAF

Vliegvelden :

Aeropuerto Internacional Astor Piazolla

Mar del Plata, Argentinië

breedte: 37-56S, lengte: 057-35W, hoogte: 18 m

Actueel weer

Dit bericht is 16 minuten geleden gemaakt, om 18:40 UTC
Wind 10 kt uit het zuidoosten
Temperatuur 27°C
Vochtigheid 32%
Druk 1005 hPa
Zicht 10 km of meer
geen wolken onder 1500 m en geen cumulonimbus

METAR: SAZM 151840Z 14010KT CAVOK 27/09 Q1005

Tijdstip: 15:56 (18:56 UTC)

Verwachting

Dit bericht is 1 uur en het 56 minuten geleden gemaakt, om 17:00 UTC
Verwachting geldig van 15 om 18 UTC tot 16 om 18 UTC
Wind 10 kt uit het noordnoordwesten
Zicht 10 km of meer
geen wolken onder 1500 m en geen cumulonimbus
Wijzigt naar
van 16 om 15 UTC tot 16 om 18 UTC
Wind 10 kt uit het noordnoordoosten
Zicht 10 km of meer
Verspreide wolken op 3000 ft
Gebroken wolken op 10000 ft

TAF: SAZM 151700Z 1518/1618 34010KT CAVOK TX28/1618Z TN14/1610Z BECMG 1615/1618 02010KT 9999 SCT030 BKN100

Waarnemingen en weersverwachtingen van meer dan 4000 vliegvelden (METAR en TAF).

De beschikbare stations zijn de gele en rode punten op de kaart.

Ga met uw muis naar het station om de naam te zien.

Klik dan om waarnemingen en weersverwachtingen te zien.

kaart wijzigen: klik op de groene knoppen met een zwart kruis om in te zoomen, op de groene knop met een streepje om uit te zoomen of op de groene pijlen voor aangrenzende kaarten.


METAR-TAF: